Time;durP1;ratioP1;P1;durP2;ratioP2;P2;SDS_P1;SDS_P2;PMS_P1;PMS_P2;Temp;Humidity;BMP_temperature;BMP_pressure;BME280_temperature;BME280_humidity;BME280_pressure;Samples;Min_cycle;Max_cycle;Signal;HPM_P1;HPM_P2
2023/02/01 00:02:23;;;;;;;2.00;1.20;;;5.00;99.90;;;;;;4977138;29;20488;-55
2023/02/01 00:04:51;;;;;;;9.20;3.13;;;5.00;99.90;;;;;;4975085;29;20487;-49
2023/02/01 00:07:18;;;;;;;5.03;1.97;;;5.00;99.90;;;;;;4976970;29;20455;-50
2023/02/01 00:09:48;;;;;;;7.83;2.20;;;5.10;99.90;;;;;;4977454;29;20469;-51
2023/02/01 00:12:19;;;;;;;12.63;2.20;;;5.10;99.90;;;;;;4976555;29;20490;-51
2023/02/01 00:14:48;;;;;;;8.23;1.97;;;5.10;99.90;;;;;;4976960;29;20431;-53
2023/02/01 00:17:15;;;;;;;16.57;2.93;;;5.20;99.90;;;;;;4977958;29;20435;-53
2023/02/01 00:19:41;;;;;;;10.63;1.87;;;5.20;99.90;;;;;;4978065;29;20479;-53
2023/02/01 00:22:10;;;;;;;4.43;1.70;;;5.10;99.90;;;;;;4979939;28;20486;-53
2023/02/01 00:24:36;;;;;;;3.13;1.23;;;5.20;99.90;;;;;;4980823;29;20475;-51
2023/02/01 00:27:03;;;;;;;9.47;1.70;;;5.20;99.90;;;;;;4980626;29;20454;-51
2023/02/01 00:29:30;;;;;;;6.70;1.13;;;5.20;99.90;;;;;;4980978;29;20471;-51
2023/02/01 00:31:57;;;;;;;3.80;1.13;;;5.10;99.90;;;;;;4980697;29;20547;-53
2023/02/01 00:34:24;;;;;;;8.60;2.23;;;5.20;99.90;;;;;;4980741;29;20435;-54
2023/02/01 00:36:51;;;;;;;4.60;1.30;;;5.20;99.90;;;;;;4980421;29;20463;-55
2023/02/01 00:39:19;;;;;;;5.23;2.30;;;5.20;99.90;;;;;;4980192;29;20439;-56
2023/02/01 00:41:48;;;;;;;7.67;1.73;;;5.10;99.90;;;;;;4980598;29;20523;-53
2023/02/01 00:44:15;;;;;;;4.13;1.20;;;5.10;99.90;;;;;;4980936;29;20444;-55
2023/02/01 00:46:42;;;;;;;10.00;4.03;;;5.10;99.90;;;;;;4980082;29;20495;-55
2023/02/01 00:49:09;;;;;;;6.43;1.30;;;5.10;99.90;;;;;;4980094;29;20435;-57
2023/02/01 00:51:36;;;;;;;15.30;1.83;;;5.10;99.90;;;;;;4979741;29;20491;-55
2023/02/01 00:54:03;;;;;;;3.00;1.70;;;5.10;99.90;;;;;;4980107;29;20479;-57
2023/02/01 00:56:35;;;;;;;5.03;1.10;;;5.10;99.90;;;;;;4979779;29;20471;-56
2023/02/01 00:59:01;;;;;;;8.43;1.77;;;5.00;99.90;;;;;;4980008;29;20432;-56
2023/02/01 01:01:30;;;;;;;10.10;1.40;;;5.00;99.90;;;;;;4979113;29;20494;-56
2023/02/01 01:04:00;;;;;;;3.83;3.13;;;5.00;99.90;;;;;;4979215;29;20443;-57
2023/02/01 01:06:28;;;;;;;3.13;1.10;;;4.90;99.90;;;;;;4978846;29;20467;-57
2023/02/01 01:08:56;;;;;;;8.20;2.07;;;4.90;99.90;;;;;;4979715;29;20436;-55
2023/02/01 01:11:26;;;;;;;5.33;1.10;;;4.90;99.90;;;;;;4979335;29;20501;-54
2023/02/01 01:13:58;;;;;;;7.50;1.43;;;4.80;99.90;;;;;;4979395;29;20487;-53
2023/02/01 01:16:27;;;;;;;7.30;1.57;;;4.80;99.90;;;;;;4979674;29;20459;-56
2023/02/01 01:18:55;;;;;;;8.30;1.70;;;4.80;99.90;;;;;;4979282;29;20449;-55
2023/02/01 01:21:21;;;;;;;9.93;2.47;;;4.80;99.90;;;;;;4979429;29;20495;-55
2023/02/01 01:23:49;;;;;;;1.97;0.67;;;4.80;99.90;;;;;;4979483;29;20432;-56
2023/02/01 01:26:18;;;;;;;8.13;2.63;;;4.70;99.90;;;;;;4979637;29;20472;-52
2023/02/01 01:28:47;;;;;;;13.07;1.73;;;4.70;99.90;;;;;;4979338;29;20423;-56
2023/02/01 01:31:18;;;;;;;8.53;2.60;;;4.70;99.90;;;;;;4978824;29;20484;-53
2023/02/01 01:33:45;;;;;;;1.30;1.10;;;4.80;99.90;;;;;;4978432;28;20420;-56
2023/02/01 01:36:15;;;;;;;1.30;0.90;;;4.80;99.90;;;;;;4980038;29;20487;-55
2023/02/01 01:38:42;;;;;;;4.77;1.93;;;4.80;99.90;;;;;;4979325;29;20431;-54
2023/02/01 01:41:13;;;;;;;3.67;1.77;;;4.80;99.90;;;;;;4979348;29;20451;-57
2023/02/01 01:43:54;;;;;;;4.77;1.53;;;4.80;99.90;;;;;;4979005;29;20432;-54
2023/02/01 01:46:28;;;;;;;4.33;1.33;;;4.80;99.90;;;;;;4978991;29;20753;-55
2023/02/01 01:49:02;;;;;;;7.40;1.57;;;4.80;99.90;;;;;;4978872;29;20463;-56
2023/02/01 01:51:31;;;;;;;15.33;4.13;;;4.80;99.90;;;;;;4978371;29;20474;-57
2023/02/01 01:54:03;;;;;;;2.67;1.30;;;4.80;99.90;;;;;;4979002;29;21009;-56
2023/02/01 01:56:32;;;;;;;4.10;1.37;;;4.90;99.90;;;;;;4978712;29;20439;-57
2023/02/01 01:58:59;;;;;;;2.50;1.30;;;4.80;99.90;;;;;;4978563;29;20440;-54
2023/02/01 02:01:28;;;;;;;10.13;2.10;;;4.90;99.90;;;;;;4978333;29;20459;-54
2023/02/01 02:03:56;;;;;;;6.97;2.23;;;4.90;99.90;;;;;;4978714;29;20424;-55
2023/02/01 02:06:41;;;;;;;11.30;3.10;;;4.80;99.90;;;;;;4978776;29;20439;-54
2023/02/01 02:09:10;;;;;;;6.90;2.00;;;4.90;99.90;;;;;;4978237;29;20435;-52
2023/02/01 02:11:37;;;;;;;6.20;2.03;;;4.90;99.90;;;;;;4977671;29;20487;-58
2023/02/01 02:14:08;;;;;;;8.03;2.50;;;4.90;99.90;;;;;;4978483;29;20467;-57
2023/02/01 02:16:47;;;;;;;5.63;1.37;;;5.00;99.90;;;;;;4978172;29;20472;-57
2023/02/01 02:19:45;;;;;;;6.73;1.23;;;5.00;99.90;;;;;;4978207;29;20451;-57
2023/02/01 02:22:40;;;;;;;3.00;1.70;;;4.90;99.90;;;;;;4978125;29;20572;-53
2023/02/01 02:25:48;;;;;;;7.93;2.07;;;5.00;99.90;;;;;;4978202;29;20487;-55
2023/02/01 02:28:37;;;;;;;4.53;1.70;;;4.90;99.90;;;;;;4968048;29;20452;-54
2023/02/01 02:31:39;;;;;;;10.50;2.20;;;4.90;99.90;;;;;;4978290;29;20439;-57
2023/02/01 02:34:22;;;;;;;5.60;1.20;;;4.90;99.90;;;;;;4978015;29;20463;-56
2023/02/01 02:36:58;;;;;;;2.33;1.37;;;4.90;99.90;;;;;;4977939;29;20408;-54
2023/02/01 02:39:37;;;;;;;5.37;1.57;;;4.90;99.90;;;;;;4977770;29;20451;-52
2023/02/01 02:47:59;;;;;;;7.33;1.40;;;4.90;99.90;;;;;;4977872;29;20506;-55
2023/02/01 03:04:26;;;;;;;11.90;3.07;;;4.90;99.90;;;;;;4978585;29;20411;-57
2023/02/01 03:06:55;;;;;;;7.60;1.90;;;5.00;99.90;;;;;;4977582;29;20458;-54
2023/02/01 03:09:25;;;;;;;6.03;2.17;;;4.90;99.90;;;;;;4977956;29;20482;-57
2023/02/01 03:14:46;;;;;;;4.83;1.57;;;5.00;99.90;;;;;;4977962;29;20443;-56
2023/02/01 03:17:16;;;;;;;4.23;1.63;;;5.00;99.90;;;;;;4977525;29;20491;-56
2023/02/01 03:19:50;;;;;;;5.50;1.43;;;5.00;99.90;;;;;;4977838;29;20432;-52
2023/02/01 03:22:22;;;;;;;9.63;1.60;;;5.00;99.90;;;;;;4977492;29;20424;-53
2023/02/01 03:24:53;;;;;;;2.80;1.10;;;5.00;99.90;;;;;;4977704;29;20444;-57
2023/02/01 03:27:25;;;;;;;9.27;3.50;;;5.10;99.90;;;;;;4976926;29;20802;-53
2023/02/01 03:29:58;;;;;;;13.30;2.33;;;5.10;99.90;;;;;;4976689;29;20459;-53
2023/02/01 03:32:25;;;;;;;13.33;2.80;;;5.10;99.90;;;;;;4976767;29;20468;-55
2023/02/01 03:34:55;;;;;;;9.37;1.57;;;5.10;99.90;;;;;;4976850;29;20466;-55
2023/02/01 03:37:28;;;;;;;20.23;1.80;;;5.10;99.90;;;;;;4976628;29;20478;-57
2023/02/01 03:40:00;;;;;;;7.47;1.30;;;5.10;99.90;;;;;;4977047;29;20463;-56
2023/02/01 03:42:34;;;;;;;14.33;2.00;;;5.10;99.90;;;;;;4977490;29;20448;-56
2023/02/01 03:45:07;;;;;;;8.93;2.77;;;5.10;99.90;;;;;;4976961;29;20448;-55
2023/02/01 03:47:38;;;;;;;8.03;1.60;;;5.10;99.90;;;;;;4977005;29;20456;-55
2023/02/01 03:50:09;;;;;;;6.63;2.73;;;5.10;99.90;;;;;;4976942;29;20408;-53
2023/02/01 03:52:43;;;;;;;7.93;2.00;;;5.10;99.90;;;;;;4976981;29;21128;-54
2023/02/01 03:55:12;;;;;;;9.60;1.00;;;5.10;99.90;;;;;;4977298;29;20913;-58
2023/02/01 03:57:44;;;;;;;10.13;3.50;;;5.10;99.90;;;;;;4976996;29;20487;-53
2023/02/01 04:00:17;;;;;;;4.07;1.20;;;5.10;99.90;;;;;;4977499;29;20435;-54
2023/02/01 04:02:44;;;;;;;8.83;1.03;;;5.20;99.90;;;;;;4976550;29;20454;-53
2023/02/01 04:05:13;;;;;;;7.53;1.97;;;5.20;99.90;;;;;;4976530;29;20451;-57
2023/02/01 04:07:45;;;;;;;12.13;2.63;;;5.20;99.90;;;;;;4976878;29;20436;-53
2023/02/01 04:10:12;;;;;;;9.77;2.50;;;5.20;99.90;;;;;;4977953;29;20476;-50
2023/02/01 04:12:39;;;;;;;7.30;0.97;;;5.20;99.90;;;;;;4978080;29;20511;-56
2023/02/01 04:15:07;;;;;;;8.20;2.23;;;5.30;99.90;;;;;;4977872;29;20555;-53
2023/02/01 04:17:34;;;;;;;9.50;2.07;;;5.30;99.90;;;;;;4977443;29;20452;-55
2023/02/01 04:20:01;;;;;;;9.30;2.60;;;5.30;99.90;;;;;;4977350;29;20479;-56
2023/02/01 04:22:28;;;;;;;10.63;2.33;;;5.30;99.90;;;;;;4977357;29;20463;-55
2023/02/01 04:24:56;;;;;;;8.43;2.50;;;5.40;99.90;;;;;;4977072;29;20563;-57
2023/02/01 04:27:24;;;;;;;3.50;1.60;;;5.30;99.90;;;;;;4976902;29;20470;-56
2023/02/01 04:29:51;;;;;;;6.23;2.37;;;5.40;99.90;;;;;;4977481;28;20469;-55
2023/02/01 04:32:19;;;;;;;7.60;2.73;;;5.40;99.90;;;;;;4976332;29;20499;-56
2023/02/01 04:34:49;;;;;;;8.10;1.83;;;5.40;99.90;;;;;;4976462;29;20495;-54
2023/02/01 04:37:16;;;;;;;7.53;2.13;;;5.40;99.90;;;;;;4976943;29;20460;-56
2023/02/01 04:39:43;;;;;;;14.20;2.07;;;5.40;99.90;;;;;;4976691;29;20499;-51
2023/02/01 04:42:11;;;;;;;8.40;2.33;;;5.50;99.90;;;;;;4976272;29;20455;-52
2023/02/01 04:44:39;;;;;;;12.90;3.70;;;5.60;99.90;;;;;;4976616;29;20527;-53
2023/02/01 04:47:06;;;;;;;13.83;3.90;;;5.50;99.90;;;;;;4976690;29;20436;-56
2023/02/01 04:49:34;;;;;;;8.00;2.83;;;5.50;99.90;;;;;;4976756;29;20467;-56
2023/02/01 04:52:01;;;;;;;5.80;2.10;;;5.60;99.90;;;;;;4976406;29;20475;-56
2023/02/01 04:54:29;;;;;;;10.97;2.60;;;5.50;99.90;;;;;;4976212;29;20479;-55
2023/02/01 04:56:56;;;;;;;6.97;2.30;;;5.60;99.90;;;;;;4976559;29;20427;-55
2023/02/01 04:59:26;;;;;;;8.20;2.47;;;5.50;99.90;;;;;;4976458;29;20483;-54
2023/02/01 05:01:53;;;;;;;11.93;2.50;;;5.60;99.90;;;;;;4976472;29;20492;-55
2023/02/01 05:04:19;;;;;;;9.20;2.80;;;5.60;99.90;;;;;;4976407;29;20460;-53
2023/02/01 05:06:46;;;;;;;9.77;2.20;;;5.70;99.90;;;;;;4976509;29;20486;-54
2023/02/01 05:09:13;;;;;;;3.57;1.60;;;5.60;99.90;;;;;;4980025;28;20494;-53
2023/02/01 05:14:27;;;;;;;4.57;2.07;;;5.70;99.90;;;;;;4979890;29;20567;-53
2023/02/01 05:16:54;;;;;;;7.57;1.60;;;5.70;99.90;;;;;;4979896;29;20542;-54
2023/02/01 05:19:24;;;;;;;5.43;2.10;;;5.70;99.90;;;;;;4979332;29;20471;-55
2023/02/01 05:21:52;;;;;;;3.23;1.53;;;5.70;99.90;;;;;;4979471;29;20435;-55
2023/02/01 05:24:21;;;;;;;13.93;3.30;;;5.80;99.90;;;;;;4979127;29;20464;-52
2023/02/01 05:26:49;;;;;;;11.60;2.87;;;5.80;99.90;;;;;;4979447;29;20444;-51
2023/02/01 05:29:17;;;;;;;13.33;2.73;;;5.80;99.90;;;;;;4979287;29;20467;-54
2023/02/01 05:31:47;;;;;;;2.60;1.40;;;5.80;99.90;;;;;;4979562;29;20463;-55
2023/02/01 05:34:14;;;;;;;11.37;2.23;;;5.70;99.90;;;;;;4980201;29;20498;-52
2023/02/01 05:36:41;;;;;;;7.83;2.00;;;5.70;99.90;;;;;;4979882;29;20471;-51
2023/02/01 05:39:09;;;;;;;10.73;2.27;;;5.70;99.90;;;;;;4980472;29;20506;-53
2023/02/01 05:41:37;;;;;;;3.53;1.60;;;5.70;99.90;;;;;;4980405;29;20440;-53
2023/02/01 05:44:04;;;;;;;6.27;1.50;;;5.80;99.90;;;;;;4980928;29;20471;-54
2023/02/01 05:46:32;;;;;;;4.40;1.70;;;5.70;99.90;;;;;;4979611;29;20448;-54
2023/02/01 05:49:00;;;;;;;7.93;2.10;;;5.70;99.90;;;;;;4981176;28;20455;-55
2023/02/01 05:51:27;;;;;;;10.87;2.53;;;5.70;99.90;;;;;;4979523;29;20432;-58
2023/02/01 05:53:54;;;;;;;10.07;2.50;;;5.80;99.90;;;;;;4979564;29;20475;-52
2023/02/01 05:56:21;;;;;;;5.03;1.87;;;5.80;99.90;;;;;;4980379;29;20463;-54
2023/02/01 05:58:48;;;;;;;8.60;3.37;;;5.80;99.90;;;;;;4979610;29;20444;-51
2023/02/01 06:01:15;;;;;;;11.70;2.33;;;5.70;99.90;;;;;;4979728;29;20463;-53
2023/02/01 06:03:42;;;;;;;18.03;3.50;;;5.80;99.90;;;;;;4979436;28;20478;-52
2023/02/01 06:06:11;;;;;;;5.33;1.47;;;5.80;99.90;;;;;;4979313;29;20440;-55
2023/02/01 06:08:39;;;;;;;7.30;2.40;;;5.80;99.90;;;;;;4979065;29;20444;-49
2023/02/01 06:11:09;;;;;;;16.90;2.40;;;5.80;99.90;;;;;;4979674;29;20463;-51
2023/02/01 06:13:38;;;;;;;11.93;2.13;;;5.80;99.90;;;;;;4979728;29;20480;-54
2023/02/01 06:16:07;;;;;;;13.97;3.10;;;5.80;99.90;;;;;;4979512;29;20511;-55
2023/02/01 06:18:34;;;;;;;13.20;3.63;;;5.70;99.90;;;;;;4978555;28;20452;-51
2023/02/01 06:21:01;;;;;;;5.30;1.90;;;5.70;99.90;;;;;;4977063;29;20482;-52
2023/02/01 06:23:32;;;;;;;6.43;2.27;;;5.60;99.90;;;;;;4978105;29;20444;-53
2023/02/01 06:26:01;;;;;;;13.73;2.70;;;5.60;99.90;;;;;;4978327;29;20424;-53
2023/02/01 06:28:28;;;;;;;13.80;2.90;;;5.60;99.90;;;;;;4978342;29;20486;-52
2023/02/01 06:30:54;;;;;;;11.37;2.43;;;5.60;99.90;;;;;;4979491;29;20455;-52
2023/02/01 06:33:22;;;;;;;6.00;1.70;;;5.50;99.90;;;;;;4979225;29;20478;-54
2023/02/01 06:35:58;;;;;;;2.10;1.77;;;5.50;99.90;;;;;;4978913;29;20502;-54
2023/02/01 06:38:26;;;;;;;6.10;2.37;;;5.50;99.90;;;;;;4977771;29;20420;-54
2023/02/01 06:40:55;;;;;;;8.17;2.20;;;5.50;99.90;;;;;;4978725;29;20495;-53
2023/02/01 06:43:23;;;;;;;3.40;1.60;;;5.50;99.90;;;;;;4979545;29;20439;-52
2023/02/01 06:45:49;;;;;;;7.07;2.00;;;5.50;99.90;;;;;;4979228;29;20464;-50
2023/02/01 06:48:16;;;;;;;10.67;2.33;;;5.40;99.90;;;;;;4978888;29;20438;-54
2023/02/01 06:50:43;;;;;;;6.93;2.23;;;5.50;99.90;;;;;;4978273;29;20500;-50
2023/02/01 06:53:10;;;;;;;6.83;1.97;;;5.50;99.90;;;;;;4978557;29;20514;-53
2023/02/01 06:55:37;;;;;;;6.30;2.03;;;5.50;99.90;;;;;;4978235;29;20499;-56
2023/02/01 06:58:05;;;;;;;8.13;2.57;;;5.50;99.90;;;;;;4977823;29;20444;-55
2023/02/01 07:00:32;;;;;;;8.13;2.90;;;5.50;99.90;;;;;;4978023;28;20502;-55
2023/02/01 07:03:00;;;;;;;11.63;3.47;;;5.50;99.90;;;;;;4977977;29;20448;-57
2023/02/01 07:05:26;;;;;;;10.43;2.50;;;5.50;99.90;;;;;;4977856;29;20472;-56
2023/02/01 07:07:53;;;;;;;12.33;3.40;;;5.50;99.90;;;;;;4978246;29;20431;-57
2023/02/01 07:10:20;;;;;;;23.03;3.60;;;5.50;99.90;;;;;;4977482;29;20490;-56
2023/02/01 07:12:47;;;;;;;7.57;3.27;;;5.50;99.90;;;;;;4977785;29;20456;-54
2023/02/01 07:15:22;;;;;;;13.53;3.37;;;5.50;99.90;;;;;;4977751;29;20511;-56
2023/02/01 07:17:53;;;;;;;13.50;2.20;;;5.50;99.90;;;;;;4977982;29;20475;-56
2023/02/01 07:20:20;;;;;;;15.43;3.10;;;5.50;99.90;;;;;;4977415;29;20486;-54
2023/02/01 07:22:46;;;;;;;14.97;2.63;;;5.50;99.90;;;;;;4977231;29;20424;-56
2023/02/01 07:25:13;;;;;;;8.70;3.47;;;5.50;99.90;;;;;;4976410;29;20537;-56
2023/02/01 07:27:42;;;;;;;4.23;1.57;;;5.50;99.90;;;;;;4977297;29;20475;-57
2023/02/01 07:30:11;;;;;;;3.33;1.43;;;5.50;99.90;;;;;;4977461;28;20504;-57
2023/02/01 07:32:39;;;;;;;5.57;3.17;;;5.50;99.90;;;;;;4977227;29;20464;-55
2023/02/01 07:35:08;;;;;;;7.30;2.10;;;5.50;99.90;;;;;;4977217;29;20444;-54
2023/02/01 07:37:37;;;;;;;5.90;1.70;;;5.50;99.90;;;;;;4977366;29;20419;-55
2023/02/01 07:40:05;;;;;;;6.63;2.47;;;5.50;99.90;;;;;;4971926;29;20443;-55
2023/02/01 07:42:35;;;;;;;5.87;2.73;;;5.50;99.90;;;;;;4970854;29;20466;-53
2023/02/01 07:45:04;;;;;;;14.03;3.10;;;5.60;99.90;;;;;;4972940;29;20460;-55
2023/02/01 07:47:33;;;;;;;7.50;2.10;;;5.60;99.90;;;;;;4968020;29;20476;-57
2023/02/01 07:50:01;;;;;;;4.47;2.03;;;5.60;99.90;;;;;;4973826;29;20440;-57
2023/02/01 07:52:29;;;;;;;5.10;2.70;;;5.60;99.90;;;;;;4975209;29;20458;-56
2023/02/01 07:54:56;;;;;;;9.90;2.40;;;5.50;99.90;;;;;;4976549;29;20507;-57
2023/02/01 07:57:23;;;;;;;10.97;2.77;;;5.40;99.90;;;;;;4975955;29;20455;-52
2023/02/01 08:02:34;;;;;;;19.77;3.40;;;5.20;99.90;;;;;;4977257;29;20415;-53
2023/02/01 08:05:02;;;;;;;8.43;2.40;;;5.20;99.90;;;;;;4977465;29;20447;-53
2023/02/01 08:07:29;;;;;;;8.93;1.87;;;5.10;99.90;;;;;;4977003;29;20459;-50
2023/02/01 08:09:58;;;;;;;4.87;2.33;;;5.00;99.90;;;;;;4977282;29;20459;-53
2023/02/01 08:12:27;;;;;;;13.10;4.93;;;4.80;99.90;;;;;;4976662;29;20888;-53
2023/02/01 08:14:56;;;;;;;9.63;3.30;;;4.80;99.90;;;;;;4977136;29;20431;-53
2023/02/01 08:17:23;;;;;;;13.23;4.20;;;4.70;99.90;;;;;;4978020;29;20543;-51
2023/02/01 08:19:50;;;;;;;2.80;1.50;;;4.60;99.90;;;;;;4977897;29;20431;-50
2023/02/01 08:22:18;;;;;;;18.17;4.00;;;4.70;99.90;;;;;;4978453;29;20460;-51
2023/02/01 08:24:45;;;;;;;3.67;1.90;;;4.70;99.90;;;;;;4977570;29;20478;-55
2023/02/01 08:27:12;;;;;;;4.50;2.17;;;4.60;99.90;;;;;;4976949;29;20474;-52
2023/02/01 08:29:39;;;;;;;1.80;1.27;;;4.50;99.90;;;;;;4975723;29;20447;-53
2023/02/01 08:32:08;;;;;;;4.60;1.70;;;4.40;99.90;;;;;;4975961;29;20564;-54
2023/02/01 08:34:35;;;;;;;1.97;1.50;;;4.40;99.90;;;;;;4976393;29;20488;-54
2023/02/01 08:37:01;;;;;;;7.80;2.10;;;4.40;99.90;;;;;;4976097;29;20476;-56
2023/02/01 08:39:31;;;;;;;7.70;1.97;;;4.40;99.90;;;;;;4976113;29;20436;-53
2023/02/01 08:44:54;;;;;;;4.87;1.80;;;4.30;99.90;;;;;;4921902;29;20438;-54
2023/02/01 08:47:21;;;;;;;4.97;2.67;;;4.40;99.90;;;;;;4966522;29;20478;-57
2023/02/01 08:49:48;;;;;;;2.37;1.90;;;4.50;99.90;;;;;;4980851;29;20432;-57
2023/02/01 08:52:16;;;;;;;4.00;1.90;;;4.50;99.90;;;;;;4980026;29;20464;-54
2023/02/01 08:54:45;;;;;;;6.57;2.23;;;4.50;99.90;;;;;;4980018;29;20503;-56
2023/02/01 08:57:12;;;;;;;1.90;1.50;;;4.50;99.90;;;;;;4979251;29;20471;-54
2023/02/01 08:59:38;;;;;;;4.63;1.73;;;4.50;99.90;;;;;;4979823;29;20448;-56
2023/02/01 09:02:06;;;;;;;7.67;2.90;;;4.50;99.90;;;;;;4979834;29;20456;-57
2023/02/01 09:04:36;;;;;;;10.13;2.10;;;4.50;99.90;;;;;;4979606;29;20478;-56
2023/02/01 09:07:02;;;;;;;2.40;1.43;;;4.50;99.90;;;;;;4979369;29;20471;-58
2023/02/01 09:09:29;;;;;;;4.93;1.53;;;4.50;99.90;;;;;;4979742;29;20427;-56
2023/02/01 09:11:59;;;;;;;2.27;1.10;;;4.50;99.90;;;;;;4979837;29;20483;-56
2023/02/01 09:14:26;;;;;;;5.67;2.90;;;4.50;99.90;;;;;;4979668;29;20535;-56
2023/02/01 09:16:53;;;;;;;1.67;1.40;;;4.50;99.90;;;;;;4979603;29;20467;-56
2023/02/01 09:19:20;;;;;;;4.63;2.13;;;4.50;99.90;;;;;;4979407;29;20460;-56
2023/02/01 09:21:47;;;;;;;3.93;1.30;;;4.50;99.90;;;;;;4980037;29;20471;-57
2023/02/01 09:24:14;;;;;;;2.83;1.53;;;4.50;99.90;;;;;;4980097;29;20450;-56
2023/02/01 09:26:41;;;;;;;1.97;0.80;;;4.60;99.90;;;;;;4979978;29;20468;-54
2023/02/01 09:29:10;;;;;;;3.77;1.50;;;4.60;99.90;;;;;;4980007;29;20455;-56
2023/02/01 09:31:38;;;;;;;2.10;1.67;;;4.70;99.90;;;;;;4979198;29;20436;-56
2023/02/01 09:34:05;;;;;;;1.47;1.10;;;4.70;99.90;;;;;;4979194;29;20478;-54
2023/02/01 09:36:32;;;;;;;5.60;1.37;;;4.70;99.90;;;;;;4979191;29;20443;-56
2023/02/01 09:38:59;;;;;;;3.93;1.57;;;4.80;99.90;;;;;;4979678;29;20448;-57
2023/02/01 09:41:38;;;;;;;9.47;1.33;;;4.70;99.90;;;;;;4979532;29;20467;-56
2023/02/01 09:44:13;;;;;;;2.37;1.03;;;4.80;99.90;;;;;;4979736;29;20532;-58
2023/02/01 09:46:40;;;;;;;3.63;1.10;;;4.80;99.90;;;;;;4980148;29;20447;-55
2023/02/01 09:49:14;;;;;;;4.27;1.53;;;4.80;99.90;;;;;;4980647;29;20436;-57
2023/02/01 09:51:45;;;;;;;1.23;0.93;;;4.80;99.90;;;;;;4980271;29;20428;-58
2023/02/01 09:54:18;;;;;;;1.10;0.90;;;4.80;99.90;;;;;;4978944;28;20464;-59
2023/02/01 09:56:49;;;;;;;4.40;1.87;;;4.80;99.90;;;;;;4979664;29;20431;-56
2023/02/01 09:59:27;;;;;;;1.70;1.17;;;4.80;99.90;;;;;;4980145;29;20480;-57
2023/02/01 10:01:54;;;;;;;0.80;0.60;;;4.80;99.90;;;;;;4980060;29;20508;-58
2023/02/01 10:04:21;;;;;;;5.37;1.73;;;4.80;99.90;;;;;;4979127;29;20419;-59
2023/02/01 10:07:03;;;;;;;1.60;0.80;;;4.80;99.90;;;;;;4978645;29;20448;-56
2023/02/01 10:09:43;;;;;;;1.17;0.80;;;4.80;99.90;;;;;;4979078;29;20451;-56
2023/02/01 10:12:38;;;;;;;1.67;0.90;;;4.80;99.90;;;;;;4978332;29;20468;-52
2023/02/01 10:15:20;;;;;;;1.43;1.00;;;4.80;99.90;;;;;;4953743;29;20543;-51
2023/02/01 10:18:06;;;;;;;0.80;0.60;;;4.80;99.90;;;;;;4978896;29;20471;-54
2023/02/01 10:20:48;;;;;;;1.20;0.80;;;4.80;99.90;;;;;;4978453;29;20432;-52
2023/02/01 10:23:30;;;;;;;4.93;1.23;;;4.80;99.90;;;;;;4978226;29;20515;-57
2023/02/01 10:26:05;;;;;;;5.10;2.20;;;4.80;99.90;;;;;;4978514;29;20428;-54
2023/02/01 10:28:37;;;;;;;3.47;0.90;;;4.80;99.90;;;;;;4978815;29;20451;-56
2023/02/01 10:31:09;;;;;;;1.00;0.70;;;4.80;99.90;;;;;;4978599;29;20432;-54
2023/02/01 10:33:40;;;;;;;2.10;0.90;;;4.80;99.90;;;;;;4978061;29;20498;-53
2023/02/01 10:36:18;;;;;;;1.20;1.00;;;4.80;99.90;;;;;;4978622;29;20440;-54
2023/02/01 10:38:45;;;;;;;2.00;1.10;;;4.80;99.90;;;;;;4978263;29;20475;-55
2023/02/01 10:41:18;;;;;;;1.00;0.60;;;4.90;99.90;;;;;;4978382;29;20476;-56
2023/02/01 10:43:49;;;;;;;1.20;0.70;;;5.00;99.90;;;;;;4978417;29;20474;-55
2023/02/01 10:46:17;;;;;;;1.47;1.23;;;5.00;99.90;;;;;;4978103;29;20456;-57
2023/02/01 10:48:44;;;;;;;7.13;1.10;;;5.00;99.90;;;;;;4977859;29;20514;-57
2023/02/01 10:51:20;;;;;;;3.37;1.80;;;5.00;99.90;;;;;;4977912;29;20444;-57
2023/02/01 10:53:51;;;;;;;1.60;0.97;;;5.00;99.90;;;;;;4977963;29;20522;-54
2023/02/01 10:56:24;;;;;;;2.27;1.67;;;4.90;99.90;;;;;;4978314;29;20432;-55
2023/02/01 10:58:52;;;;;;;2.10;0.70;;;4.80;99.90;;;;;;4977405;29;20484;-56
2023/02/01 11:01:24;;;;;;;6.73;1.37;;;4.80;99.90;;;;;;4977901;29;20457;-55
2023/02/01 11:03:56;;;;;;;3.63;0.80;;;4.70;99.90;;;;;;4978086;29;20532;-58
2023/02/01 11:06:30;;;;;;;5.37;0.90;;;4.70;99.90;;;;;;4977920;28;20464;-57
2023/02/01 11:08:58;;;;;;;8.40;1.77;;;4.70;99.90;;;;;;4977766;29;20471;-56
2023/02/01 11:11:26;;;;;;;1.57;0.70;;;4.80;99.90;;;;;;4977308;29;20479;-52
2023/02/01 11:13:56;;;;;;;7.77;1.30;;;4.80;99.90;;;;;;4977780;29;20492;-56
2023/02/01 11:16:31;;;;;;;3.77;1.57;;;4.90;99.90;;;;;;4977684;29;20454;-55
2023/02/01 11:18:59;;;;;;;3.00;1.57;;;5.00;99.90;;;;;;4978494;29;20503;-57
2023/02/01 11:21:29;;;;;;;3.73;1.57;;;5.00;99.90;;;;;;4978318;29;20444;-55
2023/02/01 11:24:01;;;;;;;1.70;0.90;;;5.10;99.90;;;;;;4977862;29;20495;-56
2023/02/01 11:26:28;;;;;;;1.33;1.20;;;5.20;99.90;;;;;;4977528;29;20396;-57
2023/02/01 11:28:59;;;;;;;2.37;1.37;;;5.20;99.90;;;;;;4977562;29;20475;-56
2023/02/01 11:31:28;;;;;;;4.00;1.23;;;5.30;99.90;;;;;;4978299;29;20508;-56
2023/02/01 11:33:59;;;;;;;3.20;1.60;;;5.40;99.90;;;;;;4977576;29;20583;-54
2023/02/01 11:36:29;;;;;;;2.03;1.53;;;5.50;99.90;;;;;;4977669;29;20432;-56
2023/02/01 11:39:10;;;;;;;10.07;1.53;;;5.70;99.90;;;;;;4977977;29;20551;-57
2023/02/01 11:41:43;;;;;;;4.70;1.37;;;5.90;99.90;;;;;;4977803;29;20443;-56
2023/02/01 11:44:22;;;;;;;9.77;2.70;;;6.10;99.90;;;;;;4977879;29;20520;-54
2023/02/01 11:46:51;;;;;;;3.07;1.37;;;6.30;99.90;;;;;;4978173;29;20426;-57
2023/02/01 11:49:23;;;;;;;1.73;1.20;;;6.40;99.90;;;;;;4978036;29;20467;-56
2023/02/01 11:52:04;;;;;;;22.33;1.70;;;6.40;99.90;;;;;;4978070;29;20435;-54
2023/02/01 11:54:49;;;;;;;5.40;1.90;;;6.40;99.90;;;;;;4977455;29;20516;-55
2023/02/01 11:57:41;;;;;;;2.97;1.50;;;6.40;99.90;;;;;;4977475;29;20431;-54
2023/02/01 12:00:28;;;;;;;4.60;2.33;;;6.50;99.90;;;;;;4977428;29;20476;-56
2023/02/01 12:03:28;;;;;;;5.47;1.57;;;6.60;99.90;;;;;;4977442;29;20447;-53
2023/02/01 12:05:59;;;;;;;4.53;0.93;;;6.70;99.90;;;;;;4977737;29;20635;-56
2023/02/01 12:08:41;;;;;;;3.70;1.37;;;6.70;99.90;;;;;;4977604;29;20472;-55
2023/02/01 12:11:30;;;;;;;2.73;1.10;;;6.70;99.90;;;;;;4977191;29;20490;-54
2023/02/01 12:14:13;;;;;;;1.57;1.10;;;6.80;99.90;;;;;;4977554;29;20464;-53
2023/02/01 12:16:53;;;;;;;3.33;1.10;;;6.90;99.90;;;;;;4978214;28;20439;-55
2023/02/01 12:19:36;;;;;;;4.83;2.00;;;6.90;99.90;;;;;;4981335;29;20488;-53
2023/02/01 12:22:20;;;;;;;1.70;1.37;;;6.90;99.90;;;;;;4981943;29;20436;-55
2023/02/01 12:25:14;;;;;;;8.73;2.30;;;6.80;99.90;;;;;;4981992;29;20470;-55
2023/02/01 12:28:03;;;;;;;2.97;1.30;;;6.80;99.90;;;;;;4981093;29;20432;-56
2023/02/01 12:31:06;;;;;;;2.57;1.00;;;6.80;99.90;;;;;;4980475;29;20447;-55
2023/02/01 12:33:45;;;;;;;3.83;0.97;;;6.80;99.90;;;;;;4978107;29;20483;-56
2023/02/01 12:36:20;;;;;;;4.70;1.10;;;6.80;99.90;;;;;;4981245;29;20420;-55
2023/02/01 12:38:54;;;;;;;4.17;1.53;;;6.70;99.90;;;;;;4981191;29;20447;-54
2023/02/01 12:41:48;;;;;;;4.13;2.00;;;6.60;99.90;;;;;;4981260;29;20432;-55
2023/02/01 12:44:33;;;;;;;4.90;1.23;;;6.60;99.90;;;;;;4973356;29;20479;-55
2023/02/01 12:47:03;;;;;;;3.03;1.10;;;6.50;99.90;;;;;;4980972;29;20766;-56
2023/02/01 12:49:42;;;;;;;2.60;1.30;;;6.50;99.90;;;;;;4980509;29;20460;-54
2023/02/01 12:52:17;;;;;;;4.70;1.70;;;6.50;99.90;;;;;;4981211;29;20439;-55
2023/02/01 12:54:51;;;;;;;6.53;1.20;;;6.60;99.90;;;;;;4981141;29;20498;-55
2023/02/01 12:57:24;;;;;;;13.77;2.23;;;6.60;99.90;;;;;;4981113;29;20420;-53
2023/02/01 13:00:00;;;;;;;8.07;2.40;;;6.70;99.90;;;;;;4980652;29;20526;-56
2023/02/01 13:02:37;;;;;;;2.40;1.97;;;6.70;99.90;;;;;;4981132;29;20428;-56
2023/02/01 13:05:15;;;;;;;1.37;0.90;;;6.70;99.90;;;;;;4980672;29;20486;-55
2023/02/01 13:07:48;;;;;;;3.33;1.30;;;6.70;99.90;;;;;;4980732;29;20452;-57
2023/02/01 13:10:21;;;;;;;4.33;1.27;;;6.70;99.90;;;;;;4980621;29;20471;-55
2023/02/01 13:12:54;;;;;;;11.20;1.73;;;6.80;99.90;;;;;;4980105;29;20443;-57
2023/02/01 13:15:25;;;;;;;1.87;1.07;;;6.80;99.90;;;;;;4979946;29;20507;-56
2023/02/01 13:17:56;;;;;;;3.87;1.27;;;6.80;99.90;;;;;;4980482;29;20500;-55
2023/02/01 13:20:30;;;;;;;1.63;1.20;;;6.80;99.90;;;;;;4980379;29;20510;-54
2023/02/01 13:23:04;;;;;;;13.93;2.03;;;6.70;99.90;;;;;;4980298;29;20436;-54
2023/02/01 13:25:36;;;;;;;1.00;0.70;;;6.70;99.90;;;;;;4980113;29;20512;-53
2023/02/01 13:28:07;;;;;;;5.23;1.10;;;6.60;99.90;;;;;;4980691;28;20428;-58
2023/02/01 13:30:52;;;;;;;5.13;1.10;;;6.60;99.90;;;;;;4980174;29;20432;-56
2023/02/01 13:33:42;;;;;;;3.10;1.30;;;6.60;99.90;;;;;;4980183;29;20435;-57
2023/02/01 13:36:30;;;;;;;1.37;1.07;;;6.60;99.90;;;;;;4980095;29;20468;-57
2023/02/01 13:39:40;;;;;;;4.17;0.90;;;6.70;99.90;;;;;;4980239;29;20750;-55
2023/02/01 13:42:17;;;;;;;7.30;1.30;;;6.70;99.90;;;;;;4980326;29;20451;-57
2023/02/01 13:44:47;;;;;;;7.43;1.27;;;6.70;99.90;;;;;;4979881;29;20499;-56
2023/02/01 13:47:24;;;;;;;10.40;1.77;;;6.70;99.90;;;;;;4979843;29;20442;-53
2023/02/01 13:49:52;;;;;;;6.20;1.40;;;6.80;99.90;;;;;;4980212;29;20462;-54